createdAt,value
2023-09-29T00:00:13.964Z,63.99
2023-09-29T00:04:27.534Z,63.91
2023-09-29T00:08:40.084Z,64.07
2023-09-29T00:12:52.970Z,64.46
2023-09-29T00:17:05.286Z,64.22
2023-09-29T00:21:17.684Z,64.25
2023-09-29T00:25:30.279Z,62.83
2023-09-29T00:29:43.450Z,64.79
2023-09-29T00:33:56.657Z,62.15
2023-09-29T00:38:09.215Z,63.00
2023-09-29T00:42:21.719Z,64.77
2023-09-29T00:46:34.200Z,65.26
2023-09-29T00:50:46.972Z,64.46
2023-09-29T00:54:59.687Z,65.29
2023-09-29T00:59:12.212Z,66.45
2023-09-29T01:03:24.926Z,64.60
2023-09-29T01:07:38.938Z,66.12
2023-09-29T01:11:51.371Z,66.25
2023-09-29T01:16:03.819Z,66.61
2023-09-29T01:20:22.902Z,65.33
2023-09-29T01:24:35.299Z,65.81
2023-09-29T01:28:51.784Z,66.31
2023-09-29T01:33:04.400Z,65.98
2023-09-29T01:37:17.468Z,66.00
2023-09-29T01:41:31.183Z,66.31
2023-09-29T01:45:43.915Z,66.41
2023-09-29T01:49:56.266Z,62.90
2023-09-29T01:54:08.611Z,62.89
2023-09-29T01:58:21.045Z,63.51
2023-09-29T02:02:33.439Z,59.43
2023-09-29T02:06:46.287Z,61.28
2023-09-29T02:10:58.760Z,61.08
2023-09-29T02:15:11.491Z,59.96
2023-09-29T02:19:23.964Z,60.34
2023-09-29T02:23:38.212Z,60.40
2023-09-29T02:27:50.584Z,59.53
2023-09-29T02:32:03.881Z,59.26
2023-09-29T02:36:16.247Z,60.34
2023-09-29T02:40:30.127Z,60.14
2023-09-29T02:44:42.589Z,60.29
2023-09-29T02:48:55.284Z,59.39
2023-09-29T02:53:09.475Z,60.15
2023-09-29T02:57:25.176Z,59.51
2023-09-29T03:01:37.601Z,60.06
2023-09-29T03:05:50.001Z,59.25
2023-09-29T03:10:02.521Z,58.92
2023-09-29T03:14:17.347Z,59.59
2023-09-29T03:18:31.702Z,60.15
2023-09-29T03:22:46.377Z,60.12
2023-09-29T03:26:58.862Z,59.03
2023-09-29T03:31:11.397Z,58.23
2023-09-29T03:35:23.752Z,57.78
2023-09-29T03:39:36.117Z,58.48
2023-09-29T03:43:48.529Z,59.01
2023-09-29T03:48:04.909Z,59.47
2023-09-29T03:52:17.349Z,60.41
2023-09-29T03:56:29.723Z,61.25
2023-09-29T04:00:42.602Z,61.42
2023-09-29T04:04:56.057Z,62.32
2023-09-29T04:09:09.690Z,62.87
2023-09-29T04:13:22.047Z,63.60
2023-09-29T04:17:35.448Z,65.18
2023-09-29T04:21:47.943Z,67.17
2023-09-29T04:26:00.528Z,67.42
2023-09-29T04:30:14.111Z,68.44
2023-09-29T04:34:26.624Z,69.82
2023-09-29T04:38:39.083Z,70.53
2023-09-29T04:42:52.939Z,69.90
2023-09-29T04:47:05.937Z,69.40
2023-09-29T04:51:18.314Z,70.76
2023-09-29T04:55:30.758Z,71.38
2023-09-29T04:59:43.559Z,72.43
2023-09-29T05:03:56.221Z,73.15
2023-09-29T05:08:09.366Z,72.54
2023-09-29T05:12:21.739Z,70.92
2023-09-29T05:16:34.173Z,71.68
2023-09-29T05:20:46.584Z,72.84
2023-09-29T05:25:00.504Z,73.90
2023-09-29T05:29:12.875Z,73.61
2023-09-29T05:33:25.592Z,72.60
2023-09-29T05:37:37.984Z,72.13
2023-09-29T05:41:51.537Z,70.91
2023-09-29T05:46:04.186Z,69.10
2023-09-29T05:50:19.486Z,66.55
2023-09-29T05:54:32.257Z,65.65
2023-09-29T05:58:44.684Z,65.43
2023-09-29T06:02:57.380Z,64.05
2023-09-29T06:07:10.700Z,63.52
2023-09-29T06:11:23.821Z,63.45
2023-09-29T06:15:36.304Z,61.94
2023-09-29T06:19:49.749Z,60.28
2023-09-29T06:24:02.239Z,57.40
2023-09-29T06:28:14.657Z,57.36
2023-09-29T06:32:27.076Z,57.09
2023-09-29T06:36:40.208Z,54.45
2023-09-29T06:40:52.871Z,52.31
2023-09-29T06:45:07.517Z,52.48
2023-09-29T06:49:20.014Z,51.41
2023-09-29T06:53:33.104Z,52.68
2023-09-29T06:57:45.607Z,51.78
2023-09-29T07:01:58.087Z,50.35
2023-09-29T07:06:10.475Z,49.57
2023-09-29T07:10:22.968Z,49.56
2023-09-29T07:14:35.332Z,48.62
2023-09-29T07:18:49.388Z,47.83
2023-09-29T07:23:04.444Z,46.08
2023-09-29T07:27:18.286Z,47.00
2023-09-29T07:31:39.712Z,46.21
2023-09-29T07:35:52.284Z,45.61
2023-09-29T07:40:05.334Z,43.47
2023-09-29T07:44:18.320Z,42.59
2023-09-29T07:48:30.955Z,41.33
2023-09-29T07:52:43.347Z,44.76
2023-09-29T07:56:55.700Z,42.26
2023-09-29T08:01:08.226Z,48.35
2023-09-29T08:05:21.422Z,45.00
2023-09-29T08:09:33.788Z,41.66
2023-09-29T08:13:48.182Z,41.43
2023-09-29T08:18:00.576Z,41.43
2023-09-29T08:22:14.585Z,44.00
2023-09-29T08:26:28.669Z,45.90
2023-09-29T08:30:44.889Z,42.07
2023-09-29T08:34:57.327Z,43.15
2023-09-29T08:39:09.956Z,45.01
2023-09-29T08:43:22.548Z,40.10
2023-09-29T08:47:37.773Z,40.63
2023-09-29T08:51:51.197Z,40.31
2023-09-29T08:56:07.048Z,39.43
2023-09-29T09:00:21.313Z,37.99
2023-09-29T09:04:34.021Z,37.63
2023-09-29T09:08:49.767Z,38.25
2023-09-29T09:13:06.989Z,38.90
2023-09-29T09:17:20.188Z,39.86
2023-09-29T09:21:36.286Z,40.35
2023-09-29T09:25:49.168Z,38.63
2023-09-29T09:30:01.909Z,37.58
2023-09-29T09:34:14.965Z,37.52
2023-09-29T09:38:33.313Z,36.64
2023-09-29T09:42:48.056Z,36.42
2023-09-29T09:47:05.492Z,37.98
2023-09-29T09:51:35.851Z,37.24
2023-09-29T09:56:02.859Z,38.31
2023-09-29T10:00:16.557Z,33.43
2023-09-29T10:04:29.827Z,31.68
2023-09-29T10:08:43.603Z,31.31
2023-09-29T10:12:56.805Z,32.09
2023-09-29T10:17:09.325Z,32.78
2023-09-29T10:21:23.223Z,30.74
2023-09-29T10:25:37.943Z,30.46
2023-09-29T10:29:54.636Z,30.22
2023-09-29T10:34:07.094Z,30.75
2023-09-29T10:38:37.759Z,33.60
2023-09-29T10:42:55.647Z,32.31
2023-09-29T10:47:09.021Z,32.75
2023-09-29T10:51:32.776Z,31.58
2023-09-29T10:55:55.985Z,31.66
2023-09-29T11:00:09.331Z,30.65
2023-09-29T11:04:22.571Z,29.90
2023-09-29T11:08:44.484Z,30.57
2023-09-29T11:12:56.922Z,29.96
2023-09-29T11:17:09.650Z,29.73
2023-09-29T11:21:36.371Z,29.70
2023-09-29T11:25:58.226Z,29.96
2023-09-29T11:30:12.284Z,29.58
2023-09-29T11:34:33.455Z,29.81
2023-09-29T11:38:47.151Z,29.11
2023-09-29T11:42:59.706Z,30.01
2023-09-29T11:47:15.040Z,29.73
2023-09-29T11:51:27.553Z,29.03
2023-09-29T11:55:39.992Z,29.20
2023-09-29T11:59:55.100Z,29.78
2023-09-29T12:04:08.225Z,30.92
2023-09-29T12:08:20.964Z,30.30
2023-09-29T12:12:34.520Z,32.74
2023-09-29T12:16:47.307Z,32.07
2023-09-29T12:21:00.843Z,32.58
2023-09-29T12:25:15.864Z,32.42
2023-09-29T12:29:31.635Z,31.96
2023-09-29T12:33:53.435Z,33.62
2023-09-29T12:38:06.971Z,34.09
2023-09-29T12:42:19.559Z,34.05
2023-09-29T12:46:33.224Z,35.05
2023-09-29T12:50:45.701Z,35.75
2023-09-29T12:55:00.482Z,36.71
2023-09-29T12:59:14.971Z,37.08
2023-09-29T13:03:28.503Z,37.75
2023-09-29T13:07:41.319Z,38.90
2023-09-29T13:11:54.404Z,39.68
2023-09-29T13:16:07.066Z,41.22
2023-09-29T13:20:20.247Z,41.66
2023-09-29T13:24:32.963Z,42.04
2023-09-29T13:28:46.725Z,42.32
2023-09-29T13:32:59.313Z,42.80
2023-09-29T13:37:13.192Z,42.89
2023-09-29T13:41:26.078Z,42.64
2023-09-29T13:45:38.523Z,42.86
2023-09-29T13:49:50.949Z,42.85
2023-09-29T13:54:04.019Z,42.47
2023-09-29T13:58:16.280Z,43.11
2023-09-29T14:02:28.758Z,42.96
2023-09-29T14:06:41.065Z,43.07
2023-09-29T14:10:53.465Z,43.19
2023-09-29T14:15:06.732Z,43.26
2023-09-29T14:19:19.420Z,43.80
2023-09-29T14:23:34.706Z,42.01
2023-09-29T14:27:48.270Z,44.44
2023-09-29T14:32:02.235Z,46.40
2023-09-29T14:36:14.672Z,47.53
2023-09-29T14:40:28.335Z,45.88
2023-09-29T14:44:40.833Z,45.32
2023-09-29T14:48:53.158Z,46.18
2023-09-29T14:53:05.660Z,47.76
2023-09-29T14:57:19.629Z,51.46
2023-09-29T15:01:32.177Z,56.44
2023-09-29T15:05:44.625Z,62.64
2023-09-29T15:09:57.663Z,68.69
2023-09-29T15:14:10.093Z,74.28
2023-09-29T15:18:22.648Z,79.44
2023-09-29T15:22:35.370Z,81.44
2023-09-29T15:26:48.077Z,80.66
2023-09-29T15:31:01.273Z,75.23
2023-09-29T15:35:15.048Z,74.20
2023-09-29T15:39:27.443Z,71.51
2023-09-29T15:43:40.064Z,70.13
2023-09-29T15:47:52.661Z,68.31
2023-09-29T15:52:05.413Z,68.86
2023-09-29T15:56:17.821Z,70.43
2023-09-29T16:00:32.955Z,69.72
2023-09-29T16:04:47.186Z,68.38
2023-09-29T16:09:01.061Z,68.86
2023-09-29T16:13:16.195Z,67.99
2023-09-29T16:17:30.270Z,67.57
2023-09-29T16:21:44.152Z,67.45
2023-09-29T16:25:59.549Z,67.83
2023-09-29T16:30:15.310Z,67.44
2023-09-29T16:34:27.868Z,68.10
2023-09-29T16:38:41.924Z,66.89
2023-09-29T16:42:54.653Z,68.11
2023-09-29T16:47:07.101Z,68.80
2023-09-29T16:51:21.522Z,68.80
2023-09-29T16:55:34.605Z,68.98
2023-09-29T16:59:47.777Z,69.42
2023-09-29T17:04:01.929Z,69.37
2023-09-29T17:08:14.697Z,70.13
2023-09-29T17:12:28.514Z,70.96
2023-09-29T17:16:45.146Z,70.20
2023-09-29T17:20:59.980Z,70.50
2023-09-29T17:25:12.587Z,70.51
2023-09-29T17:29:25.091Z,70.42
2023-09-29T17:33:38.737Z,70.02
2023-09-29T17:37:51.389Z,69.97
2023-09-29T17:42:04.178Z,68.92
2023-09-29T17:46:16.937Z,68.36
2023-09-29T17:50:29.643Z,68.05
2023-09-29T17:54:42.460Z,69.56
2023-09-29T17:58:55.242Z,71.24
2023-09-29T18:03:07.850Z,71.59
2023-09-29T18:07:23.200Z,74.84
2023-09-29T18:11:39.077Z,74.71
2023-09-29T18:15:51.679Z,74.55
2023-09-29T18:20:06.956Z,75.11
2023-09-29T18:24:19.355Z,75.29
2023-09-29T18:28:32.949Z,74.70
2023-09-29T18:32:45.384Z,73.79
2023-09-29T18:36:58.033Z,72.85
2023-09-29T18:41:17.892Z,73.07
2023-09-29T18:45:31.115Z,72.05
2023-09-29T18:49:45.749Z,72.00
2023-09-29T18:53:58.189Z,72.65
2023-09-29T18:58:10.763Z,73.09
2023-09-29T19:02:23.152Z,72.82
2023-09-29T19:06:37.510Z,73.34
2023-09-29T19:10:50.032Z,73.80
2023-09-29T19:15:02.916Z,73.57
2023-09-29T19:19:15.644Z,72.13
2023-09-29T19:23:29.064Z,71.42
2023-09-29T19:27:41.413Z,71.02
2023-09-29T19:31:54.250Z,70.56
2023-09-29T19:36:07.082Z,70.38
2023-09-29T19:40:21.394Z,71.25
2023-09-29T19:44:33.794Z,70.57
2023-09-29T19:48:46.573Z,71.51
2023-09-29T19:52:59.617Z,72.77
2023-09-29T19:57:12.647Z,71.59
2023-09-29T20:01:25.268Z,72.54
2023-09-29T20:05:44.439Z,71.44
2023-09-29T20:09:56.970Z,71.69
2023-09-29T20:14:10.317Z,71.96
2023-09-29T20:18:23.904Z,72.49
2023-09-29T20:22:36.388Z,71.97
2023-09-29T20:26:53.251Z,72.04
2023-09-29T20:31:12.557Z,71.52
2023-09-29T20:35:28.353Z,72.51
2023-09-29T20:39:43.244Z,71.80
2023-09-29T20:43:57.725Z,71.79
2023-09-29T20:48:12.127Z,71.29
2023-09-29T20:52:25.560Z,72.21
2023-09-29T20:56:42.535Z,71.56
2023-09-29T21:00:58.625Z,71.77
2023-09-29T21:05:15.032Z,71.14
2023-09-29T21:09:27.568Z,71.40
2023-09-29T21:13:40.007Z,70.89
2023-09-29T21:17:52.570Z,71.32
2023-09-29T21:22:05.312Z,72.49
2023-09-29T21:26:18.070Z,73.06
2023-09-29T21:30:31.177Z,73.40
2023-09-29T21:34:43.625Z,74.03
2023-09-29T21:38:57.237Z,74.00
2023-09-29T21:43:09.658Z,74.14
2023-09-29T21:47:24.837Z,72.99
2023-09-29T21:51:43.168Z,71.78
2023-09-29T21:55:59.702Z,70.11
2023-09-29T22:00:18.700Z,69.89
2023-09-29T22:04:32.370Z,70.79
2023-09-29T22:08:47.600Z,70.97
2023-09-29T22:13:02.390Z,70.11
2023-09-29T22:17:14.821Z,69.79
2023-09-29T22:21:30.259Z,68.96
2023-09-29T22:25:47.888Z,70.11
2023-09-29T22:30:03.211Z,70.11
2023-09-29T22:34:15.817Z,70.19
2023-09-29T22:38:28.616Z,70.61
2023-09-29T22:42:41.136Z,71.43
2023-09-29T22:46:55.070Z,70.35
2023-09-29T22:51:07.946Z,69.99
2023-09-29T22:55:21.283Z,69.39
2023-09-29T22:59:34.147Z,69.80
2023-09-29T23:03:47.005Z,68.47
2023-09-29T23:07:59.458Z,68.48
2023-09-29T23:12:12.073Z,68.62
2023-09-29T23:16:24.716Z,68.81
2023-09-29T23:20:40.485Z,69.09
2023-09-29T23:24:52.888Z,69.05
2023-09-29T23:29:06.290Z,68.06
2023-09-29T23:33:18.963Z,67.51
2023-09-29T23:37:32.813Z,68.60
2023-09-29T23:41:46.858Z,68.96
2023-09-29T23:46:06.584Z,68.88
2023-09-29T23:50:19.485Z,66.68
2023-09-29T23:54:31.876Z,67.93
2023-09-29T23:58:44.257Z,67.88
